CheckWX is a tool to help pilots better visualize weather data.  It is not intended as a substitute for an official pre-flight weather briefing.

03:44:38 UTC

OMRK TAF
Ras Al Khaimah International Airport
Ras Al Khaimah, United Arab Emirates
TAF OMRK 062250Z 0700/0806 VRB02KT 8000 FEW040 BECMG 0703/0705 09012KT PROB30 0710/0714 02012KT PROB30 TEMPO 0712/0802 VRB15G30KT 3000 SHRA BLDU FEW040TCU

Dec-7@
00:00 UTC

Dec-7 @ 00:00 UTC

Dec-7@
03:00 UTC

Dec-7 @ 03:00 UTC

TAF OMRK 062250Z 0700/0806 VRB02KT 8000 FEW040

Expired

Wind
  • Variable at 2 KTS
Cloud Levels
  • Few at 4,000' AGL

Dec-7@
03:00 UTC

Dec-7 @ 03:00 UTC

Dec-8@
06:00 UTC

Dec-8 @ 06:00 UTC

BECMG 0703/0705 09012KT

Becoming

Becoming Conditions expected by Sat, Dec 7, 2019 @ 05:00 UTC

Wind
  • 090° at 12 KTS
Cloud Levels
  • Few at 4,000' AGL

Dec-7@
10:00 UTC

Dec-7 @ 10:00 UTC

Dec-7@
14:00 UTC

Dec-7 @ 14:00 UTC

PROB30 0710/0714 02012KT

Probable - 30% Likelihood

Probable - 30% Likelihood during this time.

Wind
  • 020° at 12 KTS

Dec-7@
12:00 UTC

Dec-7 @ 12:00 UTC

Dec-8@
02:00 UTC

Dec-8 @ 02:00 UTC

PROB30 TEMPO 0712/0802 VRB15G30KT 3000 SHRA BLDU FEW040TCU

Temporary - 30% Likelihood

Temporary - 30% Likelihood during this time.

Wind
  • Variable at 15 KTS
  • {Gusting to 30 KTS
Conditions
Rain, Blowing Dust
Cloud Levels
  • Few at 4,000' AGL